Terminal Aerodrome Forecast
Issued by NWS Twin Cities, MN

Home | Current Version | Previous Version | Graphics & Text | Print | Product List | Glossary On
Versions: 1 2 3 4 5 6 7 8 9 10 11 12 13 14 15 16 17 18 19 20 21
119
FTUS43 KMPX 221140 AAA
TAFEAU
TAF AMD
KEAU 221140Z 2212/2312 VRB03KT 1/4SM FG VV001
      TEMPO 2213/2214 P6SM NSW SCT005
     FM221400 06003KT P6SM SCT250
     FM222000 22004KT P6SM SCT250
     FM230900 00000KT 1 1/2SM BR BKN007=

USA.gov is the U.S. government's official web portal to all federal, state and local government web resources and services.